logo
Search for airport 
image banner adimage banner adimage banner ad
image banner ad

MRPV - Tobias Bolanos Intl

Located in Tobias Bolanos, Costa Rica

ICAO - MRPV, IATA - SYQ

Data provided by Airmate  

General information

Coordinates: N9°57'26" W84°8'22"
Elevation is 3287 feet MSL.
 
View others Airports in San Jose

Operational data

Special qualification required
Current time UTC:
Current local time:
Weather
TAF: MRPV 200522Z 2006/2106 08010KT 9999 FEW040 TX30/2019Z TN19/2011Z BECMG 2015/2018 28010KT TEMPO 2020/2024 RA SCT020TCU
View NOTAMs / SUP AIP / TFR affecting this airport [VIEW]
Communications frequencies: [VIEW]

Runways:

RWY identifierQFULength (ft)Width (ft)SurfaceLDA (ft)
1094°513875UNK
28274°513875UNK

Airport contact information

Address: Tobias Bolanos Costa Rica

Satellite view of MRPV